sensor_id;sensor_type;location;lat;lon;timestamp;pressure;altitude;pressure_sealevel;temperature;humidity
70589;BME280;58152;49.202;18.744;2023-05-02T00:02:16;97377.72;;;14.13;49.63
70589;BME280;58152;49.202;18.744;2023-05-02T00:04:42;97357.91;;;14.06;50.19
70589;BME280;58152;49.202;18.744;2023-05-02T00:07:07;97378.09;;;14.07;50.50
70589;BME280;58152;49.202;18.744;2023-05-02T00:09:33;97376.19;;;14.09;50.18
70589;BME280;58152;49.202;18.744;2023-05-02T00:11:58;97367.03;;;14.01;50.42
70589;BME280;58152;49.202;18.744;2023-05-02T00:14:24;97370.34;;;14.04;50.30
70589;BME280;58152;49.202;18.744;2023-05-02T00:16:50;97374.09;;;14.00;50.25
70589;BME280;58152;49.202;18.744;2023-05-02T00:19:15;97361.19;;;13.95;50.32
70589;BME280;58152;49.202;18.744;2023-05-02T00:21:40;97367.41;;;13.94;50.56
70589;BME280;58152;49.202;18.744;2023-05-02T00:24:06;97371.91;;;13.92;50.28
70589;BME280;58152;49.202;18.744;2023-05-02T00:26:31;97375.94;;;13.84;50.41
70589;BME280;58152;49.202;18.744;2023-05-02T00:28:57;97370.25;;;13.76;50.90
70589;BME280;58152;49.202;18.744;2023-05-02T00:31:23;97373.59;;;13.63;51.03
70589;BME280;58152;49.202;18.744;2023-05-02T00:33:48;97371.38;;;13.56;51.29
70589;BME280;58152;49.202;18.744;2023-05-02T00:36:15;97382.88;;;13.55;51.84
70589;BME280;58152;49.202;18.744;2023-05-02T00:38:41;97371.66;;;13.51;51.88
70589;BME280;58152;49.202;18.744;2023-05-02T00:41:06;97371.06;;;13.46;52.30
70589;BME280;58152;49.202;18.744;2023-05-02T00:43:32;97360.78;;;13.41;52.53
70589;BME280;58152;49.202;18.744;2023-05-02T00:45:57;97355.44;;;13.43;52.29
70589;BME280;58152;49.202;18.744;2023-05-02T00:48:24;97363.00;;;13.49;52.28
70589;BME280;58152;49.202;18.744;2023-05-02T00:50:49;97360.19;;;13.52;52.29
70589;BME280;58152;49.202;18.744;2023-05-02T00:53:15;97366.38;;;13.51;52.42
70589;BME280;58152;49.202;18.744;2023-05-02T00:55:40;97363.09;;;13.47;52.19
70589;BME280;58152;49.202;18.744;2023-05-02T00:58:10;97369.94;;;13.50;52.60
70589;BME280;58152;49.202;18.744;2023-05-02T01:11:57;97364.44;;;13.23;52.31
70589;BME280;58152;49.202;18.744;2023-05-02T01:14:28;97364.44;;;13.23;52.83
70589;BME280;58152;49.202;18.744;2023-05-02T01:16:55;97375.75;;;13.25;52.91
70589;BME280;58152;49.202;18.744;2023-05-02T01:19:33;97368.25;;;13.17;53.15
70589;BME280;58152;49.202;18.744;2023-05-02T01:22:02;97377.59;;;13.07;52.70
70589;BME280;58152;49.202;18.744;2023-05-02T01:27:14;97380.53;;;13.01;53.16
70589;BME280;58152;49.202;18.744;2023-05-02T01:29:43;97373.94;;;12.94;53.51
70589;BME280;58152;49.202;18.744;2023-05-02T01:32:11;97374.78;;;12.94;53.31
70589;BME280;58152;49.202;18.744;2023-05-02T01:34:38;97373.94;;;12.94;53.00
70589;BME280;58152;49.202;18.744;2023-05-02T01:37:05;97362.97;;;12.86;53.34
70589;BME280;58152;49.202;18.744;2023-05-02T01:39:35;97357.09;;;12.81;53.72
70589;BME280;58152;49.202;18.744;2023-05-02T01:42:04;97365.41;;;12.73;53.63
70589;BME280;58152;49.202;18.744;2023-05-02T01:44:29;97367.97;;;12.75;53.68
70589;BME280;58152;49.202;18.744;2023-05-02T01:46:59;97370.59;;;12.75;53.78
70589;BME280;58152;49.202;18.744;2023-05-02T01:49:26;97366.19;;;12.75;53.27
70589;BME280;58152;49.202;18.744;2023-05-02T01:51:51;97357.94;;;12.65;54.10
70589;BME280;58152;49.202;18.744;2023-05-02T01:54:19;97376.00;;;12.71;53.76
70589;BME280;58152;49.202;18.744;2023-05-02T01:56:46;97368.47;;;12.65;53.66
70589;BME280;58152;49.202;18.744;2023-05-02T01:59:18;97370.06;;;12.68;54.01
70589;BME280;58152;49.202;18.744;2023-05-02T02:01:44;97369.47;;;12.63;54.17
70589;BME280;58152;49.202;18.744;2023-05-02T02:04:13;97355.78;;;12.56;53.87
70589;BME280;58152;49.202;18.744;2023-05-02T02:06:41;97363.50;;;12.59;54.33
70589;BME280;58152;49.202;18.744;2023-05-02T02:09:08;97354.56;;;12.46;53.99
70589;BME280;58152;49.202;18.744;2023-05-02T02:11:43;97361.84;;;12.41;54.20
70589;BME280;58152;49.202;18.744;2023-05-02T02:14:18;97363.88;;;12.36;54.70
70589;BME280;58152;49.202;18.744;2023-05-02T02:16:45;97359.25;;;12.24;54.71
70589;BME280;58152;49.202;18.744;2023-05-02T02:19:13;97372.00;;;12.31;55.21
70589;BME280;58152;49.202;18.744;2023-05-02T02:21:42;97364.81;;;12.17;55.18
70589;BME280;58152;49.202;18.744;2023-05-02T02:24:09;97356.16;;;12.15;55.07
70589;BME280;58152;49.202;18.744;2023-05-02T02:26:36;97369.94;;;12.20;55.24
70589;BME280;58152;49.202;18.744;2023-05-02T02:29:02;97368.00;;;12.24;54.71
70589;BME280;58152;49.202;18.744;2023-05-02T02:31:32;97357.38;;;12.26;54.49
70589;BME280;58152;49.202;18.744;2023-05-02T02:33:58;97355.84;;;12.21;54.67
70589;BME280;58152;49.202;18.744;2023-05-02T02:36:52;97361.09;;;12.21;54.89
70589;BME280;58152;49.202;18.744;2023-05-02T02:39:34;97360.41;;;12.18;54.91
70589;BME280;58152;49.202;18.744;2023-05-02T02:42:11;97382.47;;;12.15;55.13
70589;BME280;58152;49.202;18.744;2023-05-02T02:44:51;97376.41;;;12.13;54.66
70589;BME280;58152;49.202;18.744;2023-05-02T02:47:35;97374.88;;;12.09;55.41
70589;BME280;58152;49.202;18.744;2023-05-02T02:50:26;97372.34;;;12.08;54.68
70589;BME280;58152;49.202;18.744;2023-05-02T02:53:04;97375.91;;;12.07;55.43
70589;BME280;58152;49.202;18.744;2023-05-02T03:01:02;97368.63;;;11.94;55.73
70589;BME280;58152;49.202;18.744;2023-05-02T03:03:29;97379.38;;;11.90;55.85
70589;BME280;58152;49.202;18.744;2023-05-02T03:05:56;97386.41;;;11.89;55.59
70589;BME280;58152;49.202;18.744;2023-05-02T03:08:23;97379.69;;;11.84;55.63
70589;BME280;58152;49.202;18.744;2023-05-02T03:10:48;97387.56;;;11.84;56.34
70589;BME280;58152;49.202;18.744;2023-05-02T03:13:14;97393.53;;;11.87;55.91
70589;BME280;58152;49.202;18.744;2023-05-02T03:18:18;97388.63;;;11.80;56.09
70589;BME280;58152;49.202;18.744;2023-05-02T03:20:43;97390.53;;;11.76;55.71
70589;BME280;58152;49.202;18.744;2023-05-02T03:23:09;97382.59;;;11.78;56.03
70589;BME280;58152;49.202;18.744;2023-05-02T03:25:35;97385.91;;;11.81;55.78
70589;BME280;58152;49.202;18.744;2023-05-02T03:28:01;97379.78;;;11.82;55.55
70589;BME280;58152;49.202;18.744;2023-05-02T03:30:27;97371.91;;;11.81;55.90
70589;BME280;58152;49.202;18.744;2023-05-02T03:32:52;97386.63;;;11.85;55.48
70589;BME280;58152;49.202;18.744;2023-05-02T03:35:18;97381.94;;;11.73;55.33
70589;BME280;58152;49.202;18.744;2023-05-02T03:37:44;97379.53;;;11.68;55.99
70589;BME280;58152;49.202;18.744;2023-05-02T03:40:09;97386.22;;;11.75;55.45
70589;BME280;58152;49.202;18.744;2023-05-02T03:42:35;97382.75;;;11.75;56.34
70589;BME280;58152;49.202;18.744;2023-05-02T03:45:07;97383.09;;;11.67;56.23
70589;BME280;58152;49.202;18.744;2023-05-02T03:47:32;97391.63;;;11.72;56.14
70589;BME280;58152;49.202;18.744;2023-05-02T03:49:58;97387.19;;;11.73;55.95
70589;BME280;58152;49.202;18.744;2023-05-02T03:52:24;97389.69;;;11.76;55.97
70589;BME280;58152;49.202;18.744;2023-05-02T03:54:49;97393.25;;;11.75;55.86
70589;BME280;58152;49.202;18.744;2023-05-02T03:57:16;97385.91;;;11.64;55.65
70589;BME280;58152;49.202;18.744;2023-05-02T03:59:41;97385.81;;;11.65;55.76
70589;BME280;58152;49.202;18.744;2023-05-02T04:02:07;97384.88;;;11.66;55.70
70589;BME280;58152;49.202;18.744;2023-05-02T04:04:36;97390.00;;;11.69;55.76
70589;BME280;58152;49.202;18.744;2023-05-02T04:07:01;97389.22;;;11.67;55.90
70589;BME280;58152;49.202;18.744;2023-05-02T04:09:27;97393.72;;;11.65;56.11
70589;BME280;58152;49.202;18.744;2023-05-02T04:11:53;97398.97;;;11.65;55.71
70589;BME280;58152;49.202;18.744;2023-05-02T04:14:18;97400.66;;;11.66;nan
70589;BME280;58152;49.202;18.744;2023-05-02T04:16:48;97395.84;;;11.57;55.98
70589;BME280;58152;49.202;18.744;2023-05-02T04:19:14;97402.78;;;11.58;55.99
70589;BME280;58152;49.202;18.744;2023-05-02T04:21:43;97408.84;;;11.60;55.48
70589;BME280;58152;49.202;18.744;2023-05-02T04:24:08;97410.69;;;11.58;55.94
70589;BME280;58152;49.202;18.744;2023-05-02T04:26:34;97418.50;;;11.60;55.76
70589;BME280;58152;49.202;18.744;2023-05-02T04:28:59;97408.13;;;11.57;55.10
70589;BME280;58152;49.202;18.744;2023-05-02T04:31:25;97413.31;;;11.58;55.92
70589;BME280;58152;49.202;18.744;2023-05-02T04:33:51;97419.59;;;11.56;55.75
70589;BME280;58152;49.202;18.744;2023-05-02T04:36:17;97415.31;;;11.53;56.29
70589;BME280;58152;49.202;18.744;2023-05-02T04:38:43;97413.69;;;11.51;56.41
70589;BME280;58152;49.202;18.744;2023-05-02T04:41:09;97416.47;;;11.48;55.54
70589;BME280;58152;49.202;18.744;2023-05-02T04:43:34;97413.84;;;11.48;56.21
70589;BME280;58152;49.202;18.744;2023-05-02T04:46:00;97412.34;;;11.42;56.22
70589;BME280;58152;49.202;18.744;2023-05-02T04:48:25;97415.91;;;11.41;56.59
70589;BME280;58152;49.202;18.744;2023-05-02T04:50:51;97414.91;;;11.43;56.07
70589;BME280;58152;49.202;18.744;2023-05-02T04:53:19;97420.72;;;11.50;56.44
70589;BME280;58152;49.202;18.744;2023-05-02T04:55:44;97417.88;;;11.55;56.17
70589;BME280;58152;49.202;18.744;2023-05-02T04:58:10;97419.81;;;11.51;56.46
70589;BME280;58152;49.202;18.744;2023-05-02T05:00:36;97430.09;;;11.56;56.40
70589;BME280;58152;49.202;18.744;2023-05-02T05:03:02;97422.44;;;11.51;nan
70589;BME280;58152;49.202;18.744;2023-05-02T05:05:27;97425.91;;;11.52;56.25
70589;BME280;58152;49.202;18.744;2023-05-02T05:07:53;97428.53;;;11.52;55.79
70589;BME280;58152;49.202;18.744;2023-05-02T05:10:18;97432.84;;;11.53;55.58
70589;BME280;58152;49.202;18.744;2023-05-02T05:12:44;97439.03;;;11.52;nan
70589;BME280;58152;49.202;18.744;2023-05-02T05:15:10;97438.03;;;11.54;55.16
70589;BME280;58152;49.202;18.744;2023-05-02T05:17:35;97445.63;;;11.60;55.61
70589;BME280;58152;49.202;18.744;2023-05-02T05:20:02;97450.03;;;11.60;55.75
70589;BME280;58152;49.202;18.744;2023-05-02T05:22:27;97456.88;;;11.64;55.82
70589;BME280;58152;49.202;18.744;2023-05-02T05:24:53;97451.44;;;11.67;56.71
70589;BME280;58152;49.202;18.744;2023-05-02T05:27:19;97460.03;;;11.70;56.42
70589;BME280;58152;49.202;18.744;2023-05-02T05:29:45;97461.69;;;11.73;56.58
70589;BME280;58152;49.202;18.744;2023-05-02T05:32:11;97459.03;;;11.73;56.35
70589;BME280;58152;49.202;18.744;2023-05-02T05:34:37;97462.44;;;11.75;55.86
70589;BME280;58152;49.202;18.744;2023-05-02T05:37:02;97454.63;;;11.74;56.12
70589;BME280;58152;49.202;18.744;2023-05-02T05:39:28;97457.09;;;11.77;56.08
70589;BME280;58152;49.202;18.744;2023-05-02T05:41:53;97454.63;;;11.74;56.35
70589;BME280;58152;49.202;18.744;2023-05-02T05:44:19;97449.53;;;11.70;56.45
70589;BME280;58152;49.202;18.744;2023-05-02T05:46:46;97458.13;;;11.74;56.43
70589;BME280;58152;49.202;18.744;2023-05-02T05:49:14;97468.31;;;11.80;56.33
70589;BME280;58152;49.202;18.744;2023-05-02T05:51:40;97472.81;;;11.78;56.28
70589;BME280;58152;49.202;18.744;2023-05-02T05:54:11;97466.75;;;11.76;55.75
70589;BME280;58152;49.202;18.744;2023-05-02T05:56:36;97470.25;;;11.77;56.22
70589;BME280;58152;49.202;18.744;2023-05-02T05:59:02;97452.91;;;11.73;55.92
70589;BME280;58152;49.202;18.744;2023-05-02T06:01:29;97482.22;;;11.84;55.83
70589;BME280;58152;49.202;18.744;2023-05-02T06:03:55;97477.03;;;11.82;55.72
70589;BME280;58152;49.202;18.744;2023-05-02T06:06:28;97474.22;;;11.85;55.82
70589;BME280;58152;49.202;18.744;2023-05-02T06:08:53;97469.47;;;11.93;55.94
70589;BME280;58152;49.202;18.744;2023-05-02T06:11:20;97471.88;;;11.98;56.03
70589;BME280;58152;49.202;18.744;2023-05-02T06:13:45;97457.72;;;12.01;55.91
70589;BME280;58152;49.202;18.744;2023-05-02T06:16:14;97464.38;;;12.08;55.58
70589;BME280;58152;49.202;18.744;2023-05-02T06:18:39;97471.41;;;12.07;55.75
70589;BME280;58152;49.202;18.744;2023-05-02T06:21:05;97474.66;;;12.12;55.44
70589;BME280;58152;49.202;18.744;2023-05-02T06:23:30;97473.28;;;12.05;55.28
70589;BME280;58152;49.202;18.744;2023-05-02T06:25:59;97478.47;;;12.07;55.91
70589;BME280;58152;49.202;18.744;2023-05-02T06:28:25;97491.53;;;12.08;55.85
70589;BME280;58152;49.202;18.744;2023-05-02T06:30:58;97476.81;;;12.04;56.06
70589;BME280;58152;49.202;18.744;2023-05-02T06:33:25;97481.22;;;12.04;55.60
70589;BME280;58152;49.202;18.744;2023-05-02T06:35:51;97482.63;;;12.11;56.34
70589;BME280;58152;49.202;18.744;2023-05-02T06:38:17;97487.72;;;12.14;55.73
70589;BME280;58152;49.202;18.744;2023-05-02T06:40:43;97482.56;;;12.12;55.27
70589;BME280;58152;49.202;18.744;2023-05-02T06:43:10;97487.81;;;12.12;56.03
70589;BME280;58152;49.202;18.744;2023-05-02T06:45:35;97487.06;;;12.10;55.71
70589;BME280;58152;49.202;18.744;2023-05-02T06:48:01;97500.75;;;12.17;56.26
70589;BME280;58152;49.202;18.744;2023-05-02T06:50:28;97496.56;;;12.13;55.67
70589;BME280;58152;49.202;18.744;2023-05-02T06:52:53;97498.09;;;12.17;55.74
70589;BME280;58152;49.202;18.744;2023-05-02T06:55:19;97498.09;;;12.17;56.10
70589;BME280;58152;49.202;18.744;2023-05-02T06:57:44;97496.19;;;12.20;55.69
70589;BME280;58152;49.202;18.744;2023-05-02T07:00:11;97489.06;;;12.23;54.88
70589;BME280;58152;49.202;18.744;2023-05-02T07:02:36;97494.19;;;12.26;55.77
70589;BME280;58152;49.202;18.744;2023-05-02T07:05:02;97504.47;;;12.30;55.60
70589;BME280;58152;49.202;18.744;2023-05-02T07:07:27;97496.34;;;12.35;55.29
70589;BME280;58152;49.202;18.744;2023-05-02T07:09:52;97496.19;;;12.38;55.18
70589;BME280;58152;49.202;18.744;2023-05-02T07:12:18;97498.50;;;12.44;55.01
70589;BME280;58152;49.202;18.744;2023-05-02T07:14:43;97488.94;;;12.43;55.39
70589;BME280;58152;49.202;18.744;2023-05-02T07:17:11;97499.13;;;12.49;54.88
70589;BME280;58152;49.202;18.744;2023-05-02T07:19:37;97498.38;;;12.47;55.08
70589;BME280;58152;49.202;18.744;2023-05-02T07:22:02;97483.44;;;12.48;54.88
70589;BME280;58152;49.202;18.744;2023-05-02T07:24:28;97493.63;;;12.54;55.52
70589;BME280;58152;49.202;18.744;2023-05-02T07:26:56;97500.59;;;12.55;55.06
70589;BME280;58152;49.202;18.744;2023-05-02T07:29:21;97496.63;;;12.63;55.55
70589;BME280;58152;49.202;18.744;2023-05-02T07:31:47;97494.56;;;12.70;55.46
70589;BME280;58152;49.202;18.744;2023-05-02T07:34:12;97492.69;;;12.72;55.71
70589;BME280;58152;49.202;18.744;2023-05-02T07:36:38;97487.75;;;12.83;55.74
70589;BME280;58152;49.202;18.744;2023-05-02T07:39:06;97485.72;;;12.88;55.99
70589;BME280;58152;49.202;18.744;2023-05-02T07:41:31;97488.84;;;12.95;55.44
70589;BME280;58152;49.202;18.744;2023-05-02T07:43:59;97493.47;;;13.07;55.56
70589;BME280;58152;49.202;18.744;2023-05-02T07:46:24;97501.00;;;13.15;55.42
70589;BME280;58152;49.202;18.744;2023-05-02T07:48:50;97491.06;;;13.20;55.92
70589;BME280;58152;49.202;18.744;2023-05-02T07:51:15;97493.97;;;13.31;55.76
70589;BME280;58152;49.202;18.744;2023-05-02T07:53:41;97494.53;;;13.38;55.99
70589;BME280;58152;49.202;18.744;2023-05-02T07:56:07;97501.72;;;13.50;55.85
70589;BME280;58152;49.202;18.744;2023-05-02T07:58:35;97497.75;;;13.59;55.38
70589;BME280;58152;49.202;18.744;2023-05-02T08:01:01;97488.75;;;13.63;55.53
70589;BME280;58152;49.202;18.744;2023-05-02T08:03:28;97492.66;;;13.71;55.14
70589;BME280;58152;49.202;18.744;2023-05-02T08:05:54;97487.97;;;13.77;55.26
70589;BME280;58152;49.202;18.744;2023-05-02T08:08:19;97502.44;;;13.85;54.93
70589;BME280;58152;49.202;18.744;2023-05-02T08:10:45;97500.38;;;13.90;54.92
70589;BME280;58152;49.202;18.744;2023-05-02T08:13:11;97494.75;;;13.96;54.84
70589;BME280;58152;49.202;18.744;2023-05-02T08:15:37;97502.34;;;14.03;54.78
70589;BME280;58152;49.202;18.744;2023-05-02T08:18:02;97484.78;;;14.02;54.53
70589;BME280;58152;49.202;18.744;2023-05-02T08:20:28;97499.81;;;14.15;54.51
70589;BME280;58152;49.202;18.744;2023-05-02T08:22:53;97497.13;;;14.17;54.28
70589;BME280;58152;49.202;18.744;2023-05-02T08:25:21;97497.53;;;14.25;54.21
70589;BME280;58152;49.202;18.744;2023-05-02T08:27:46;97496.31;;;14.31;54.13
70589;BME280;58152;49.202;18.744;2023-05-02T08:30:12;97496.06;;;14.35;54.48
70589;BME280;58152;49.202;18.744;2023-05-02T08:32:37;97497.00;;;14.34;54.49
70589;BME280;58152;49.202;18.744;2023-05-02T08:35:03;97510.50;;;14.44;54.52
70589;BME280;58152;49.202;18.744;2023-05-02T08:37:29;97503.72;;;14.40;54.53
70589;BME280;58152;49.202;18.744;2023-05-02T08:39:55;97501.66;;;14.45;53.78
70589;BME280;58152;49.202;18.744;2023-05-02T08:42:21;97504.78;;;14.52;54.30
70589;BME280;58152;49.202;18.744;2023-05-02T08:44:47;97515.59;;;14.63;53.61
70589;BME280;58152;49.202;18.744;2023-05-02T08:47:14;97505.78;;;14.65;53.88
70589;BME280;58152;49.202;18.744;2023-05-02T08:49:41;97499.28;;;14.70;53.63
70589;BME280;58152;49.202;18.744;2023-05-02T08:52:08;97504.38;;;14.73;53.48
70589;BME280;58152;49.202;18.744;2023-05-02T08:54:36;97505.53;;;14.84;53.28
70589;BME280;58152;49.202;18.744;2023-05-02T08:57:05;97505.91;;;14.92;53.21
70589;BME280;58152;49.202;18.744;2023-05-02T08:59:38;97511.97;;;14.94;53.07
70589;BME280;58152;49.202;18.744;2023-05-02T09:29:50;97495.16;;;15.66;52.68
70589;BME280;58152;49.202;18.744;2023-05-02T09:32:15;97499.13;;;15.73;52.81
70589;BME280;58152;49.202;18.744;2023-05-02T09:35:04;97503.09;;;15.81;52.56
70589;BME280;58152;49.202;18.744;2023-05-02T09:37:38;97499.75;;;15.91;53.06
70589;BME280;58152;49.202;18.744;2023-05-02T09:40:22;97504.53;;;15.99;52.93
70589;BME280;58152;49.202;18.744;2023-05-02T09:42:49;97486.34;;;16.07;51.87
70589;BME280;58152;49.202;18.744;2023-05-02T09:45:22;97498.34;;;16.13;51.68
70589;BME280;58152;49.202;18.744;2023-05-02T09:47:54;97496.34;;;16.16;51.48
70589;BME280;58152;49.202;18.744;2023-05-02T09:53:08;97497.88;;;16.33;51.32
70589;BME280;58152;49.202;18.744;2023-05-02T09:55:34;97503.84;;;16.37;50.30
70589;BME280;58152;49.202;18.744;2023-05-02T09:58:00;97497.88;;;16.33;51.28
70589;BME280;58152;49.202;18.744;2023-05-02T10:00:44;97497.28;;;16.42;50.47
70589;BME280;58152;49.202;18.744;2023-05-02T10:03:10;97513.41;;;16.52;49.96
70589;BME280;58152;49.202;18.744;2023-05-02T10:05:43;97502.50;;;16.57;49.98
70589;BME280;58152;49.202;18.744;2023-05-02T10:08:10;97498.81;;;16.59;50.18
70589;BME280;58152;49.202;18.744;2023-05-02T10:10:38;97505.63;;;16.76;49.95
70589;BME280;58152;49.202;18.744;2023-05-02T10:13:05;97503.94;;;16.88;49.01
70589;BME280;58152;49.202;18.744;2023-05-02T10:15:41;97505.75;;;16.87;48.10
70589;BME280;58152;49.202;18.744;2023-05-02T10:18:12;97497.34;;;16.81;48.52
70589;BME280;58152;49.202;18.744;2023-05-02T10:20:55;97502.25;;;16.74;48.27
70589;BME280;58152;49.202;18.744;2023-05-02T10:25:58;97509.41;;;16.59;49.08
70589;BME280;58152;49.202;18.744;2023-05-02T10:28:25;97499.09;;;16.55;49.15
70589;BME280;58152;49.202;18.744;2023-05-02T10:30:52;97504.41;;;16.55;48.84
70589;BME280;58152;49.202;18.744;2023-05-02T10:33:28;97498.47;;;16.51;49.56
70589;BME280;58152;49.202;18.744;2023-05-02T10:35:57;97497.38;;;16.53;50.15
70589;BME280;58152;49.202;18.744;2023-05-02T10:38:23;97493.41;;;16.61;50.52
70589;BME280;58152;49.202;18.744;2023-05-02T10:41:04;97487.66;;;16.67;51.23
70589;BME280;58152;49.202;18.744;2023-05-02T10:44:08;97507.22;;;16.79;51.02
70589;BME280;58152;49.202;18.744;2023-05-02T10:46:47;97510.31;;;16.72;50.48
70589;BME280;58152;49.202;18.744;2023-05-02T10:49:14;97512.28;;;16.69;50.72
70589;BME280;58152;49.202;18.744;2023-05-02T10:51:41;97502.06;;;16.63;51.06
70589;BME280;58152;49.202;18.744;2023-05-02T10:59:56;97518.81;;;16.50;52.04
70589;BME280;58152;49.202;18.744;2023-05-02T11:05:27;97518.94;;;16.35;51.90
70589;BME280;58152;49.202;18.744;2023-05-02T11:10:44;97521.28;;;16.26;51.51
70589;BME280;58152;49.202;18.744;2023-05-02T11:13:10;97527.59;;;16.24;51.77
70589;BME280;58152;49.202;18.744;2023-05-02T11:18:06;97526.41;;;16.15;52.14
70589;BME280;58152;49.202;18.744;2023-05-02T11:20:33;97531.59;;;16.17;52.51
70589;BME280;58152;49.202;18.744;2023-05-02T11:23:20;97533.50;;;16.15;53.23
70589;BME280;58152;49.202;18.744;2023-05-02T11:25:50;97529.25;;;16.12;52.48
70589;BME280;58152;49.202;18.744;2023-05-02T11:31:09;97516.38;;;16.20;52.88
70589;BME280;58152;49.202;18.744;2023-05-02T11:34:01;97524.84;;;16.25;53.16
70589;BME280;58152;49.202;18.744;2023-05-02T11:36:31;97524.78;;;16.27;53.81
70589;BME280;58152;49.202;18.744;2023-05-02T11:39:16;97531.66;;;16.30;54.54
70589;BME280;58152;49.202;18.744;2023-05-02T11:41:45;97520.31;;;16.27;54.74
70589;BME280;58152;49.202;18.744;2023-05-02T11:44:12;97534.75;;;16.36;54.63
70589;BME280;58152;49.202;18.744;2023-05-02T11:46:39;97535.38;;;16.40;54.67
70589;BME280;58152;49.202;18.744;2023-05-02T11:49:07;97533.59;;;16.40;54.80
70589;BME280;58152;49.202;18.744;2023-05-02T11:51:33;97529.16;;;16.41;54.80
70589;BME280;58152;49.202;18.744;2023-05-02T11:54:21;97521.22;;;16.41;54.56
70589;BME280;58152;49.202;18.744;2023-05-02T11:56:50;97525.56;;;16.42;54.35
70589;BME280;58152;49.202;18.744;2023-05-02T11:59:51;97522.78;;;16.43;54.17
70589;BME280;58152;49.202;18.744;2023-05-02T12:05:04;97521.53;;;16.49;53.74
70589;BME280;58152;49.202;18.744;2023-05-02T12:08:00;97527.28;;;16.56;55.11
70589;BME280;58152;49.202;18.744;2023-05-02T12:20:21;97527.59;;;16.51;54.50
70589;BME280;58152;49.202;18.744;2023-05-02T12:33:28;97526.31;;;16.57;55.26
70589;BME280;58152;49.202;18.744;2023-05-02T12:36:22;97540.22;;;16.60;55.76
70589;BME280;58152;49.202;18.744;2023-05-02T12:38:52;97528.88;;;16.58;55.07
70589;BME280;58152;49.202;18.744;2023-05-02T12:44:55;97533.28;;;16.72;55.75
70589;BME280;58152;49.202;18.744;2023-05-02T12:48:23;97522.75;;;16.70;56.10
70589;BME280;58152;49.202;18.744;2023-05-02T12:58:11;97517.13;;;17.27;57.76
70589;BME280;58152;49.202;18.744;2023-05-02T13:00:58;97504.66;;;17.53;57.19
70589;BME280;58152;49.202;18.744;2023-05-02T13:03:37;97512.25;;;17.71;57.26
70589;BME280;58152;49.202;18.744;2023-05-02T13:06:04;97507.28;;;17.66;57.86
70589;BME280;58152;49.202;18.744;2023-05-02T13:33:02;97504.91;;;18.83;56.60
70589;BME280;58152;49.202;18.744;2023-05-02T13:35:30;97503.59;;;18.89;56.06
70589;BME280;58152;49.202;18.744;2023-05-02T13:38:07;97510.22;;;18.83;56.10
70589;BME280;58152;49.202;18.744;2023-05-02T13:41:19;97518.59;;;18.66;54.51
70589;BME280;58152;49.202;18.744;2023-05-02T14:11:20;97553.78;;;17.08;57.39
70589;BME280;58152;49.202;18.744;2023-05-02T14:14:29;97555.16;;;17.01;58.54
70589;BME280;58152;49.202;18.744;2023-05-02T14:18:03;97523.56;;;16.98;59.02
70589;BME280;58152;49.202;18.744;2023-05-02T14:21:10;97542.75;;;17.01;60.13
70589;BME280;58152;49.202;18.744;2023-05-02T14:34:03;97551.66;;;16.88;63.04
70589;BME280;58152;49.202;18.744;2023-05-02T14:47:08;97559.91;;;16.83;62.93
70589;BME280;58152;49.202;18.744;2023-05-02T14:49:38;97561.72;;;16.83;63.11
70589;BME280;58152;49.202;18.744;2023-05-02T14:52:05;97566.34;;;16.79;63.01
70589;BME280;58152;49.202;18.744;2023-05-02T14:54:34;97564.88;;;16.75;62.85
70589;BME280;58152;49.202;18.744;2023-05-02T14:57:08;97562.22;;;16.75;63.07
70589;BME280;58152;49.202;18.744;2023-05-02T14:59:54;97573.47;;;16.79;63.47
70589;BME280;58152;49.202;18.744;2023-05-02T15:02:20;97578.75;;;16.79;63.48
70589;BME280;58152;49.202;18.744;2023-05-02T16:06:33;97678.03;;;15.89;62.06
70589;BME280;58152;49.202;18.744;2023-05-02T16:23:07;97652.47;;;15.45;64.50
70589;BME280;58152;49.202;18.744;2023-05-02T16:25:21;97638.97;;;15.35;64.15
70589;BME280;58152;49.202;18.744;2023-05-02T16:28:07;97608.16;;;15.34;64.83
70589;BME280;58152;49.202;18.744;2023-05-02T16:30:47;97603.16;;;15.30;65.58
70589;BME280;58152;49.202;18.744;2023-05-02T16:33:53;97589.63;;;15.06;65.80
70589;BME280;58152;49.202;18.744;2023-05-02T16:36:38;97602.16;;;15.02;66.31
70589;BME280;58152;49.202;18.744;2023-05-02T16:39:27;97606.53;;;15.03;65.94
70589;BME280;58152;49.202;18.744;2023-05-02T16:43:03;97626.03;;;15.00;66.45
70589;BME280;58152;49.202;18.744;2023-05-02T16:45:28;97653.22;;;15.03;65.74
70589;BME280;58152;49.202;18.744;2023-05-02T16:47:55;97644.38;;;15.04;65.90
70589;BME280;58152;49.202;18.744;2023-05-02T16:50:21;97651.50;;;15.17;65.97
70589;BME280;58152;49.202;18.744;2023-05-02T16:52:53;97663.78;;;15.33;65.63
70589;BME280;58152;49.202;18.744;2023-05-02T16:55:59;97669.06;;;15.33;65.57
70589;BME280;58152;49.202;18.744;2023-05-02T17:01:53;97677.28;;;15.28;64.82
70589;BME280;58152;49.202;18.744;2023-05-02T17:04:28;97673.78;;;15.28;64.88
70589;BME280;58152;49.202;18.744;2023-05-02T17:09:58;97669.88;;;15.19;65.57
70589;BME280;58152;49.202;18.744;2023-05-02T17:12:24;97671.56;;;15.20;65.69
70589;BME280;58152;49.202;18.744;2023-05-02T17:14:51;97676.53;;;15.26;65.75
70589;BME280;58152;49.202;18.744;2023-05-02T17:17:22;97682.47;;;15.30;66.01
70589;BME280;58152;49.202;18.744;2023-05-02T17:20:19;97692.22;;;15.43;66.04
70589;BME280;58152;49.202;18.744;2023-05-02T17:22:53;97684.94;;;15.33;65.26
70589;BME280;58152;49.202;18.744;2023-05-02T17:25:50;97694.50;;;15.35;65.37
70589;BME280;58152;49.202;18.744;2023-05-02T17:35:24;97708.69;;;15.18;66.16